Terminal Aerodrome Forecast
Issued by NWS Huntsville, AL

Home | Current Version | Previous Version | Text Only | Print | Product List | Glossary On
Versions: 1 2 3 4 5 6 7 8 9 10 11 12 13
000
FTUS44 KHUN 040617 AAA
TAFHSV
TAF AMD
KHSV 040617Z 0406/0506 10006KT 6SM RA BR BKN006 BKN011 OVC030
      TEMPO 0408/0412 3SM RA BR BKN005
     FM041500 11010KT 3SM RA BR OVC009
     FM041900 13010KT 5SM -RA BR OVC015
     FM050000 VRB03KT P6SM OVC009=

USA.gov is the U.S. government's official web portal to all federal, state and local government web resources and services.